createdAt,value
2022-12-26T00:01:25.198Z,97.10
2022-12-26T00:03:52.151Z,97.10
2022-12-26T00:06:20.916Z,97.00
2022-12-26T00:08:47.643Z,97.00
2022-12-26T00:11:15.475Z,96.90
2022-12-26T00:13:42.197Z,96.90
2022-12-26T00:16:09.111Z,96.90
2022-12-26T00:18:35.935Z,96.80
2022-12-26T00:21:02.669Z,96.90
2022-12-26T00:23:29.510Z,97.00
2022-12-26T00:25:56.127Z,97.00
2022-12-26T00:28:22.831Z,97.00
2022-12-26T00:30:49.496Z,96.90
2022-12-26T00:33:16.154Z,96.60
2022-12-26T00:35:42.787Z,96.40
2022-12-26T00:38:09.527Z,96.20
2022-12-26T00:40:36.134Z,96.10
2022-12-26T00:43:02.792Z,96.00
2022-12-26T00:45:29.459Z,95.90
2022-12-26T00:47:56.192Z,95.80
2022-12-26T00:50:23.168Z,95.70
2022-12-26T00:52:49.861Z,95.80
2022-12-26T00:55:16.609Z,95.80
2022-12-26T00:57:43.241Z,95.70
2022-12-26T01:00:10.465Z,95.50
2022-12-26T01:02:37.194Z,95.40
2022-12-26T01:05:05.422Z,96.00
2022-12-26T01:07:36.083Z,96.10
2022-12-26T01:10:22.799Z,96.20
2022-12-26T01:12:49.575Z,96.20
2022-12-26T01:15:16.458Z,96.10
2022-12-26T01:17:43.209Z,96.10
2022-12-26T01:20:10.447Z,96.30
2022-12-26T01:22:40.145Z,96.30
2022-12-26T01:25:07.497Z,96.30
2022-12-26T01:27:34.261Z,96.20
2022-12-26T01:30:00.954Z,96.00
2022-12-26T01:32:27.625Z,96.10
2022-12-26T01:34:54.265Z,96.30
2022-12-26T01:37:20.975Z,96.50
2022-12-26T01:39:47.615Z,96.70
2022-12-26T01:42:19.924Z,96.70
2022-12-26T01:45:04.606Z,96.80
2022-12-26T01:48:01.063Z,96.90
2022-12-26T01:50:57.223Z,97.00
2022-12-26T01:53:29.059Z,97.10
2022-12-26T01:56:03.778Z,97.10
2022-12-26T01:58:32.451Z,97.00
2022-12-26T02:03:41.675Z,97.00
2022-12-26T02:06:08.483Z,97.00
2022-12-26T02:08:35.407Z,96.80
2022-12-26T02:11:14.069Z,96.60
2022-12-26T02:13:41.093Z,96.20
2022-12-26T02:16:10.983Z,96.10
2022-12-26T02:18:37.633Z,95.90
2022-12-26T02:21:15.652Z,95.60
2022-12-26T02:24:07.956Z,95.40
2022-12-26T02:26:40.682Z,95.30
2022-12-26T02:29:18.069Z,95.70
2022-12-26T02:32:00.689Z,95.70
2022-12-26T02:34:49.956Z,95.60
2022-12-26T02:37:30.188Z,95.90
2022-12-26T02:40:23.885Z,95.50
2022-12-26T02:43:21.680Z,95.50
2022-12-26T02:45:54.491Z,95.20
2022-12-26T02:48:52.327Z,95.10
2022-12-26T02:51:31.293Z,94.90
2022-12-26T02:54:24.176Z,95.00
2022-12-26T02:56:52.531Z,95.20
2022-12-26T02:59:54.047Z,95.30
2022-12-26T03:02:24.146Z,95.30
2022-12-26T03:04:51.161Z,95.10
2022-12-26T03:07:32.124Z,95.10
2022-12-26T03:09:58.945Z,95.00
2022-12-26T03:12:42.173Z,95.30
2022-12-26T03:15:13.811Z,95.30
2022-12-26T03:17:46.780Z,95.30
2022-12-26T03:20:26.333Z,95.10
2022-12-26T03:23:11.148Z,95.00
2022-12-26T03:25:50.182Z,95.10
2022-12-26T03:28:16.835Z,95.60
2022-12-26T03:30:43.598Z,95.70
2022-12-26T03:33:10.474Z,95.80
2022-12-26T03:35:37.141Z,95.80
2022-12-26T03:38:11.845Z,95.80
2022-12-26T03:41:13.126Z,95.80
2022-12-26T03:43:53.664Z,95.90
2022-12-26T03:46:43.700Z,96.00
2022-12-26T03:49:21.840Z,96.00
2022-12-26T03:52:14.466Z,96.10
2022-12-26T03:54:54.397Z,96.00
2022-12-26T03:57:21.661Z,96.00
2022-12-26T03:59:59.893Z,96.00
2022-12-26T04:02:27.168Z,96.00
2022-12-26T04:04:54.665Z,95.80
2022-12-26T04:07:24.451Z,95.80
2022-12-26T04:09:56.423Z,95.70
2022-12-26T04:12:24.249Z,95.70
2022-12-26T04:14:58.932Z,95.60
2022-12-26T04:17:28.377Z,95.60
2022-12-26T04:20:13.260Z,95.50
2022-12-26T04:22:48.722Z,95.60
2022-12-26T04:25:48.746Z,95.70
2022-12-26T04:28:11.738Z,95.70
2022-12-26T04:30:39.557Z,95.70
2022-12-26T04:33:11.136Z,95.60
2022-12-26T04:35:45.427Z,95.60
2022-12-26T04:38:13.281Z,95.50
2022-12-26T04:40:41.534Z,95.50
2022-12-26T04:43:49.977Z,95.50
2022-12-26T04:45:58.272Z,95.40
2022-12-26T04:48:24.925Z,95.30
2022-12-26T04:50:52.162Z,95.20
2022-12-26T04:53:19.387Z,95.30
2022-12-26T04:55:46.116Z,95.20
2022-12-26T04:58:12.884Z,95.20
2022-12-26T05:00:39.570Z,95.20
2022-12-26T05:03:07.043Z,95.20
2022-12-26T05:05:36.458Z,95.30
2022-12-26T05:08:03.164Z,95.30
2022-12-26T05:10:29.846Z,95.40
2022-12-26T05:12:56.543Z,95.30
2022-12-26T05:15:23.379Z,95.30
2022-12-26T05:17:50.037Z,95.30
2022-12-26T05:20:16.719Z,95.30
2022-12-26T05:22:44.163Z,95.20
2022-12-26T05:25:22.845Z,95.20
2022-12-26T05:27:49.860Z,95.00
2022-12-26T05:30:16.911Z,94.90
2022-12-26T05:32:43.587Z,95.00
2022-12-26T05:35:10.253Z,94.90
2022-12-26T05:37:36.875Z,94.80
2022-12-26T05:40:03.685Z,94.90
2022-12-26T05:42:30.371Z,94.80
2022-12-26T05:44:57.030Z,94.90
2022-12-26T05:47:23.774Z,95.00
2022-12-26T05:49:50.487Z,94.90
2022-12-26T05:52:17.136Z,95.10
2022-12-26T05:54:43.731Z,95.00
2022-12-26T05:57:10.354Z,94.70
2022-12-26T05:59:37.008Z,94.40
2022-12-26T06:02:03.731Z,94.30
2022-12-26T06:04:30.470Z,94.30
2022-12-26T06:06:57.527Z,94.30
2022-12-26T06:09:24.272Z,94.20
2022-12-26T06:11:51.006Z,94.40
2022-12-26T06:14:17.710Z,94.30
2022-12-26T06:16:46.420Z,94.40
2022-12-26T06:19:13.155Z,94.20
2022-12-26T06:21:39.815Z,94.30
2022-12-26T06:24:06.772Z,93.90
2022-12-26T06:26:33.519Z,93.80
2022-12-26T06:29:00.189Z,93.80
2022-12-26T06:31:26.979Z,93.70
2022-12-26T06:33:57.254Z,94.00
2022-12-26T06:36:24.890Z,94.00
2022-12-26T06:38:51.842Z,94.00
2022-12-26T06:41:21.779Z,93.70
2022-12-26T06:43:48.611Z,93.90
2022-12-26T06:46:17.475Z,93.70
2022-12-26T06:48:44.296Z,93.60
2022-12-26T06:51:16.520Z,93.50
2022-12-26T06:53:43.189Z,93.30
2022-12-26T06:56:10.768Z,93.30
2022-12-26T06:58:37.549Z,93.30
2022-12-26T07:01:08.240Z,93.50
2022-12-26T07:03:35.171Z,93.60
2022-12-26T07:06:06.263Z,93.40
2022-12-26T07:08:33.474Z,93.30
2022-12-26T07:11:00.179Z,93.40
2022-12-26T07:13:26.842Z,93.30
2022-12-26T07:15:53.546Z,93.30
2022-12-26T07:18:20.201Z,93.20
2022-12-26T07:20:46.951Z,93.30
2022-12-26T07:23:13.775Z,93.40
2022-12-26T07:25:40.769Z,93.40
2022-12-26T07:28:07.599Z,93.30
2022-12-26T07:30:34.409Z,93.30
2022-12-26T07:33:01.120Z,93.20
2022-12-26T07:35:27.864Z,93.20
2022-12-26T07:37:54.616Z,92.70
2022-12-26T07:40:21.349Z,92.50
2022-12-26T07:42:48.018Z,92.60
2022-12-26T07:45:15.110Z,92.30
2022-12-26T07:47:41.961Z,92.40
2022-12-26T07:50:12.463Z,92.20
2022-12-26T07:52:39.529Z,91.90
2022-12-26T07:55:08.454Z,92.00
2022-12-26T07:57:50.498Z,91.80
2022-12-26T08:00:18.161Z,91.30
2022-12-26T08:02:49.317Z,91.00
2022-12-26T08:05:16.919Z,91.20
2022-12-26T08:07:44.059Z,90.90
2022-12-26T08:10:15.189Z,91.00
2022-12-26T08:12:46.695Z,90.60
2022-12-26T08:15:20.567Z,90.30
2022-12-26T08:17:47.249Z,90.50
2022-12-26T08:20:14.184Z,90.30
2022-12-26T08:22:40.987Z,90.50
2022-12-26T08:28:08.380Z,89.60
2022-12-26T08:30:54.088Z,89.10
2022-12-26T08:33:21.120Z,89.00
2022-12-26T08:35:47.876Z,89.20
2022-12-26T08:38:14.580Z,89.30
2022-12-26T08:40:55.184Z,88.90
2022-12-26T08:46:17.547Z,88.30
2022-12-26T08:48:47.708Z,88.50
2022-12-26T08:51:24.884Z,88.50
2022-12-26T08:53:52.002Z,88.60
2022-12-26T08:56:22.654Z,88.50
2022-12-26T08:58:49.660Z,88.50
2022-12-26T09:01:21.255Z,88.60
2022-12-26T09:03:48.675Z,88.30
2022-12-26T09:06:15.467Z,88.10
2022-12-26T09:08:42.358Z,88.00
2022-12-26T09:11:14.221Z,88.10
2022-12-26T09:13:41.681Z,88.20
2022-12-26T09:16:18.190Z,88.20
2022-12-26T09:18:45.770Z,88.30
2022-12-26T09:21:13.267Z,88.60
2022-12-26T09:23:40.411Z,89.00
2022-12-26T09:26:18.862Z,89.10
2022-12-26T09:28:47.724Z,89.30
2022-12-26T09:31:18.395Z,89.50
2022-12-26T09:33:45.457Z,89.50
2022-12-26T09:36:15.266Z,89.70
2022-12-26T09:38:43.717Z,90.00
2022-12-26T09:41:24.262Z,90.20
2022-12-26T09:44:06.608Z,90.20
2022-12-26T09:47:18.043Z,90.10
2022-12-26T09:50:03.295Z,89.80
2022-12-26T09:52:44.137Z,89.30
2022-12-26T09:55:19.771Z,89.20
2022-12-26T09:57:51.191Z,89.50
2022-12-26T10:00:28.766Z,89.30
2022-12-26T10:03:16.310Z,88.80
2022-12-26T10:06:06.318Z,89.40
2022-12-26T10:08:42.671Z,89.10
2022-12-26T10:11:33.378Z,89.20
2022-12-26T10:14:21.598Z,89.20
2022-12-26T10:16:54.603Z,88.50
2022-12-26T10:19:33.737Z,88.20
2022-12-26T10:22:06.131Z,87.60
2022-12-26T10:24:36.975Z,88.30
2022-12-26T10:27:12.651Z,88.10
2022-12-26T10:29:44.964Z,87.60
2022-12-26T10:32:13.284Z,87.60
2022-12-26T10:34:41.907Z,87.40
2022-12-26T10:37:20.050Z,87.40
2022-12-26T10:40:01.798Z,87.60
2022-12-26T10:42:37.574Z,87.20
2022-12-26T10:45:31.592Z,87.20
2022-12-26T10:47:58.339Z,87.00
2022-12-26T10:50:32.295Z,87.00
2022-12-26T10:52:59.478Z,86.40
2022-12-26T10:55:31.876Z,85.90
2022-12-26T10:58:23.011Z,86.30
2022-12-26T11:00:49.715Z,85.40
2022-12-26T11:03:18.158Z,85.40
2022-12-26T11:06:07.404Z,85.50
2022-12-26T11:08:44.197Z,85.10
2022-12-26T11:11:34.529Z,85.00
2022-12-26T11:14:02.621Z,85.00
2022-12-26T11:16:34.981Z,84.70
2022-12-26T11:19:02.842Z,84.50
2022-12-26T11:21:30.288Z,84.30
2022-12-26T11:24:19.554Z,84.10
2022-12-26T11:26:46.372Z,83.70
2022-12-26T11:29:14.944Z,83.70
2022-12-26T11:32:03.712Z,83.50
2022-12-26T11:34:46.650Z,83.60
2022-12-26T11:37:30.307Z,83.30
2022-12-26T11:39:57.180Z,83.10
2022-12-26T11:42:25.266Z,83.40
2022-12-26T11:44:53.546Z,83.60
2022-12-26T11:47:24.358Z,83.50
2022-12-26T11:50:10.358Z,82.90
2022-12-26T11:52:44.623Z,82.90
2022-12-26T11:55:23.573Z,82.30
2022-12-26T11:58:10.908Z,82.30
2022-12-26T12:00:42.125Z,81.90
2022-12-26T12:03:16.587Z,81.60
2022-12-26T12:05:49.412Z,80.50
2022-12-26T12:08:22.103Z,79.10
2022-12-26T12:10:51.539Z,78.90
2022-12-26T12:13:18.193Z,77.30
2022-12-26T12:15:51.733Z,76.70
2022-12-26T12:18:31.114Z,75.90
2022-12-26T12:21:16.565Z,76.00
2022-12-26T12:24:10.590Z,75.70
2022-12-26T12:27:05.448Z,74.80
2022-12-26T12:29:59.709Z,75.50
2022-12-26T12:32:56.775Z,74.90
2022-12-26T12:36:02.679Z,73.90
2022-12-26T12:38:54.846Z,74.10
2022-12-26T12:41:57.927Z,74.60
2022-12-26T12:44:27.981Z,74.40
2022-12-26T12:46:55.065Z,74.50
2022-12-26T12:49:26.445Z,74.70
2022-12-26T12:52:16.164Z,74.80
2022-12-26T12:54:50.083Z,72.70
2022-12-26T12:57:32.719Z,74.10
2022-12-26T13:00:12.042Z,73.60
2022-12-26T13:02:56.835Z,73.10
2022-12-26T13:05:42.133Z,71.70
2022-12-26T13:08:16.995Z,72.80
2022-12-26T13:11:03.324Z,72.80
2022-12-26T13:13:39.439Z,73.10
2022-12-26T13:16:15.741Z,73.40
2022-12-26T13:19:11.844Z,72.40
2022-12-26T13:21:39.059Z,71.60
2022-12-26T13:24:13.854Z,71.90
2022-12-26T13:27:13.107Z,70.60
2022-12-26T13:29:41.978Z,67.90
2022-12-26T13:32:34.937Z,69.50
2022-12-26T13:35:02.102Z,68.70
2022-12-26T13:37:37.955Z,70.20
2022-12-26T13:40:13.369Z,70.10
2022-12-26T13:42:44.179Z,70.20
2022-12-26T13:45:42.856Z,70.40
2022-12-26T13:48:18.287Z,69.90
2022-12-26T13:50:56.075Z,69.80
2022-12-26T13:53:26.420Z,70.10
2022-12-26T13:55:53.963Z,69.90
2022-12-26T13:58:58.577Z,69.00
2022-12-26T14:01:46.831Z,68.50
2022-12-26T14:04:36.908Z,69.40
2022-12-26T14:07:24.494Z,69.40
2022-12-26T14:09:58.798Z,66.50
2022-12-26T14:13:08.065Z,69.00
2022-12-26T14:15:39.309Z,68.30
2022-12-26T14:18:38.420Z,69.30
2022-12-26T14:21:10.831Z,69.30
2022-12-26T14:24:06.427Z,69.70
2022-12-26T14:27:06.962Z,68.90
2022-12-26T14:29:55.725Z,69.40
2022-12-26T14:32:47.198Z,68.90
2022-12-26T14:35:37.227Z,69.10
2022-12-26T14:38:30.450Z,69.30
2022-12-26T14:41:07.241Z,69.00
2022-12-26T14:43:36.332Z,69.40
2022-12-26T14:46:25.609Z,69.40
2022-12-26T14:48:54.776Z,69.50
2022-12-26T14:51:21.765Z,69.80
2022-12-26T14:54:17.345Z,69.80
2022-12-26T14:56:44.200Z,69.60
2022-12-26T14:59:19.622Z,69.70
2022-12-26T15:01:49.925Z,69.80
2022-12-26T15:04:41.688Z,69.90
2022-12-26T15:07:46.687Z,69.90
2022-12-26T15:10:33.384Z,70.20
2022-12-26T15:13:47.737Z,70.20
2022-12-26T15:16:36.329Z,70.30
2022-12-26T15:19:21.564Z,70.60
2022-12-26T15:22:00.818Z,71.00
2022-12-26T15:25:18.351Z,71.20
2022-12-26T15:28:15.932Z,71.30
2022-12-26T15:31:10.490Z,71.40
2022-12-26T15:33:51.367Z,71.70
2022-12-26T15:36:43.698Z,72.00
2022-12-26T15:39:48.146Z,72.30
2022-12-26T15:42:47.961Z,72.40
2022-12-26T15:45:39.911Z,72.50
2022-12-26T15:48:18.584Z,72.60
2022-12-26T15:51:23.659Z,72.70
2022-12-26T15:54:12.134Z,72.90
2022-12-26T15:56:48.739Z,73.10
2022-12-26T15:59:51.305Z,73.50
2022-12-26T16:02:27.427Z,73.10
2022-12-26T16:05:17.208Z,73.10
2022-12-26T16:07:52.431Z,73.20
2022-12-26T16:10:25.860Z,73.20
2022-12-26T16:13:10.211Z,73.30
2022-12-26T16:15:48.048Z,73.40
2022-12-26T16:18:19.801Z,73.60
2022-12-26T16:20:46.767Z,73.70
2022-12-26T16:23:23.982Z,73.90
2022-12-26T16:25:55.891Z,73.90
2022-12-26T16:28:36.887Z,74.10
2022-12-26T16:31:04.096Z,74.10
2022-12-26T16:33:38.475Z,74.30
2022-12-26T16:36:05.234Z,74.40
2022-12-26T16:38:31.907Z,74.50
2022-12-26T16:40:58.638Z,74.60
2022-12-26T16:43:30.339Z,74.70
2022-12-26T16:45:59.540Z,74.90
2022-12-26T16:48:27.944Z,74.90
2022-12-26T16:50:59.921Z,75.10
2022-12-26T16:53:35.670Z,75.20
2022-12-26T16:56:31.314Z,75.20
2022-12-26T16:59:30.829Z,75.40
2022-12-26T17:02:17.821Z,75.50
2022-12-26T17:04:58.540Z,75.60
2022-12-26T17:07:26.360Z,75.60
2022-12-26T17:09:56.187Z,75.80
2022-12-26T17:12:32.755Z,75.90
2022-12-26T17:14:59.878Z,76.00
2022-12-26T17:17:32.370Z,76.20
2022-12-26T17:20:20.041Z,76.30
2022-12-26T17:22:47.909Z,76.50
2022-12-26T17:25:17.548Z,76.60
2022-12-26T17:27:45.078Z,76.60
2022-12-26T17:30:20.757Z,76.80
2022-12-26T17:32:47.652Z,76.90
2022-12-26T17:35:17.225Z,77.20
2022-12-26T17:37:44.144Z,77.10
2022-12-26T17:40:13.742Z,77.60
2022-12-26T17:42:54.371Z,77.60
2022-12-26T17:45:23.173Z,77.90
2022-12-26T17:47:53.637Z,77.90
2022-12-26T17:50:21.349Z,78.00
2022-12-26T17:52:48.216Z,78.30
2022-12-26T17:55:21.265Z,78.30
2022-12-26T17:57:48.099Z,78.30
2022-12-26T18:00:20.317Z,78.20
2022-12-26T18:02:47.225Z,78.20
2022-12-26T18:05:14.384Z,78.30
2022-12-26T18:07:41.149Z,78.50
2022-12-26T18:10:10.569Z,78.50
2022-12-26T18:12:37.338Z,78.50
2022-12-26T18:15:04.259Z,78.50
2022-12-26T18:17:32.070Z,78.40
2022-12-26T18:19:58.998Z,78.40
2022-12-26T18:22:26.460Z,78.40
2022-12-26T18:24:53.178Z,78.40
2022-12-26T18:27:30.691Z,78.60
2022-12-26T18:29:58.181Z,78.70
2022-12-26T18:32:32.382Z,78.70
2022-12-26T18:34:59.353Z,78.70
2022-12-26T18:37:29.792Z,78.90
2022-12-26T18:39:58.371Z,79.10
2022-12-26T18:42:28.743Z,79.00
2022-12-26T18:44:57.605Z,78.90
2022-12-26T18:47:24.949Z,78.70
2022-12-26T18:49:57.593Z,78.20
2022-12-26T18:52:25.131Z,78.30
2022-12-26T18:54:54.504Z,78.10
2022-12-26T18:57:23.791Z,78.10
2022-12-26T18:59:50.988Z,78.10
2022-12-26T19:02:22.506Z,78.30
2022-12-26T19:04:51.548Z,78.30
2022-12-26T19:07:19.451Z,78.40
2022-12-26T19:09:55.710Z,78.40
2022-12-26T19:12:25.551Z,78.40
2022-12-26T19:14:53.430Z,78.50
2022-12-26T19:17:21.735Z,78.60
2022-12-26T19:19:50.164Z,78.70
2022-12-26T19:22:18.229Z,78.60
2022-12-26T19:24:51.047Z,78.70
2022-12-26T19:27:20.976Z,78.80
2022-12-26T19:29:48.401Z,78.90
2022-12-26T19:32:15.360Z,79.00
2022-12-26T19:34:42.524Z,78.90
2022-12-26T19:37:10.772Z,78.90
2022-12-26T19:39:37.730Z,78.90
2022-12-26T19:42:05.146Z,78.90
2022-12-26T19:44:33.843Z,78.90
2022-12-26T19:47:11.645Z,78.90
2022-12-26T19:49:41.187Z,79.10
2022-12-26T19:52:12.817Z,79.40
2022-12-26T19:54:42.972Z,79.50
2022-12-26T19:57:10.822Z,79.40
2022-12-26T19:59:38.436Z,79.40
2022-12-26T20:02:05.575Z,79.50
2022-12-26T20:04:34.366Z,79.50
2022-12-26T20:07:02.956Z,79.60
2022-12-26T20:09:36.920Z,79.80
2022-12-26T20:12:09.525Z,79.80
2022-12-26T20:14:38.980Z,79.80
2022-12-26T20:17:07.771Z,79.90
2022-12-26T20:19:35.699Z,79.90
2022-12-26T20:22:03.300Z,79.80
2022-12-26T20:24:31.213Z,79.80
2022-12-26T20:27:00.556Z,79.80
2022-12-26T20:29:28.280Z,79.80
2022-12-26T20:31:57.020Z,79.90
2022-12-26T20:34:26.644Z,79.90
2022-12-26T20:36:53.341Z,80.00
2022-12-26T20:39:20.073Z,79.90
2022-12-26T20:41:46.868Z,79.90
2022-12-26T20:44:14.506Z,79.90
2022-12-26T20:46:41.257Z,80.00
2022-12-26T20:49:08.489Z,80.10
2022-12-26T20:51:39.233Z,80.30
2022-12-26T20:54:06.930Z,80.20
2022-12-26T20:56:34.291Z,80.30
2022-12-26T20:59:00.970Z,80.40
2022-12-26T21:01:27.837Z,80.50
2022-12-26T21:03:55.375Z,80.40
2022-12-26T21:06:30.516Z,80.60
2022-12-26T21:08:57.280Z,80.80
2022-12-26T21:11:27.953Z,80.80
2022-12-26T21:13:56.618Z,80.80
2022-12-26T21:16:26.380Z,80.90
2022-12-26T21:18:53.238Z,80.70
2022-12-26T21:21:23.967Z,80.80
2022-12-26T21:23:54.363Z,80.90
2022-12-26T21:26:21.013Z,81.30
2022-12-26T21:28:47.622Z,81.30
2022-12-26T21:31:14.319Z,81.30
2022-12-26T21:33:44.754Z,81.60
2022-12-26T21:36:12.511Z,81.50
2022-12-26T21:38:39.398Z,81.70
2022-12-26T21:41:12.758Z,81.70
2022-12-26T21:43:39.729Z,81.80
2022-12-26T21:46:12.273Z,82.10
2022-12-26T21:48:52.647Z,82.20
2022-12-26T21:51:22.719Z,82.10
2022-12-26T21:54:03.779Z,82.30
2022-12-26T21:56:30.759Z,82.70
2022-12-26T21:58:57.735Z,82.30
2022-12-26T22:01:26.226Z,82.20
2022-12-26T22:03:53.537Z,82.10
2022-12-26T22:06:20.672Z,82.20
2022-12-26T22:08:47.608Z,82.60
2022-12-26T22:11:17.367Z,82.60
2022-12-26T22:13:44.328Z,82.50
2022-12-26T22:16:11.707Z,82.60
2022-12-26T22:18:43.261Z,82.70
2022-12-26T22:21:14.466Z,82.60
2022-12-26T22:23:41.500Z,83.00
2022-12-26T22:26:11.349Z,82.70
2022-12-26T22:28:38.325Z,83.10
2022-12-26T22:31:05.149Z,83.40
2022-12-26T22:33:37.484Z,83.30
2022-12-26T22:36:08.533Z,83.10
2022-12-26T22:38:36.299Z,83.20
2022-12-26T22:41:03.212Z,83.10
2022-12-26T22:43:29.968Z,83.10
2022-12-26T22:45:56.876Z,83.20
2022-12-26T22:48:24.060Z,83.20
2022-12-26T22:50:54.988Z,83.30
2022-12-26T22:53:25.559Z,83.20
2022-12-26T22:55:56.081Z,83.10
2022-12-26T22:58:22.913Z,83.60
2022-12-26T23:00:49.720Z,83.80
2022-12-26T23:03:16.439Z,83.70
2022-12-26T23:05:43.337Z,83.80
2022-12-26T23:08:14.766Z,83.80
2022-12-26T23:10:42.002Z,83.90
2022-12-26T23:13:14.626Z,84.00
2022-12-26T23:15:54.294Z,83.80
2022-12-26T23:18:37.021Z,83.90
2022-12-26T23:21:08.249Z,84.00
2022-12-26T23:23:34.977Z,84.30
2022-12-26T23:26:01.791Z,84.40
2022-12-26T23:28:28.495Z,84.40
2022-12-26T23:30:55.218Z,84.30
2022-12-26T23:33:21.886Z,84.40
2022-12-26T23:35:48.489Z,84.80
2022-12-26T23:38:15.416Z,84.60
2022-12-26T23:40:42.081Z,84.70
2022-12-26T23:43:08.885Z,84.80
2022-12-26T23:45:35.510Z,84.70
2022-12-26T23:48:02.164Z,85.10
2022-12-26T23:50:28.773Z,84.80
2022-12-26T23:52:55.443Z,84.90
2022-12-26T23:55:22.097Z,84.60
2022-12-26T23:57:48.817Z,84.90
